createdAt,value
2019-01-26T00:01:48.884Z,18.07
2019-01-26T00:04:17.129Z,18.10
2019-01-26T00:06:45.388Z,18.07
2019-01-26T00:09:13.610Z,18.53
2019-01-26T00:11:41.881Z,17.23
2019-01-26T00:14:10.248Z,17.60
2019-01-26T00:16:38.583Z,16.37
2019-01-26T00:19:06.808Z,17.33
2019-01-26T00:21:35.085Z,18.03
2019-01-26T00:24:03.325Z,16.67
2019-01-26T00:26:36.243Z,16.53
2019-01-26T00:29:01.555Z,17.57
2019-01-26T00:31:29.794Z,17.43
2019-01-26T00:33:58.026Z,16.77
2019-01-26T00:36:26.313Z,17.20
2019-01-26T00:38:54.574Z,17.07
2019-01-26T00:41:22.848Z,15.87
2019-01-26T00:43:52.060Z,16.93
2019-01-26T00:46:20.354Z,15.63
2019-01-26T00:48:48.650Z,15.97
2019-01-26T00:51:17.337Z,16.87
2019-01-26T00:53:45.619Z,16.00
2019-01-26T00:56:13.863Z,15.60
2019-01-26T00:58:42.116Z,16.20
2019-01-26T01:01:10.461Z,16.10
2019-01-26T01:03:38.761Z,15.00
2019-01-26T01:06:07.114Z,14.73
2019-01-26T01:08:35.370Z,14.20
2019-01-26T01:11:03.678Z,15.00
2019-01-26T01:13:32.009Z,13.90
2019-01-26T01:16:00.250Z,14.83
2019-01-26T01:18:28.519Z,14.27
2019-01-26T01:20:56.845Z,13.97
2019-01-26T01:23:25.076Z,14.13
2019-01-26T01:25:53.341Z,13.07
2019-01-26T01:28:21.587Z,13.63
2019-01-26T01:30:49.864Z,14.23
2019-01-26T01:33:18.134Z,13.80
2019-01-26T01:35:46.374Z,13.77
2019-01-26T01:38:14.632Z,12.93
2019-01-26T01:40:42.919Z,12.03
2019-01-26T01:43:11.208Z,14.00
2019-01-26T01:45:39.542Z,13.70
2019-01-26T01:48:07.807Z,12.03
2019-01-26T01:50:36.060Z,13.23
2019-01-26T01:53:07.056Z,13.07
2019-01-26T01:55:35.346Z,12.70
2019-01-26T01:58:03.611Z,13.10
2019-01-26T02:00:31.900Z,12.70
2019-01-26T02:03:00.179Z,12.17
2019-01-26T02:05:28.426Z,12.60
2019-01-26T02:07:56.699Z,12.37
2019-01-26T02:10:24.971Z,12.53
2019-01-26T02:12:53.230Z,12.50
2019-01-26T02:15:21.516Z,13.20
2019-01-26T02:17:49.764Z,13.20
2019-01-26T02:20:18.949Z,11.87
2019-01-26T02:22:47.199Z,11.53
2019-01-26T02:25:15.466Z,11.47
2019-01-26T02:27:46.504Z,12.33
2019-01-26T02:30:16.106Z,11.50
2019-01-26T02:32:44.344Z,12.10
2019-01-26T02:35:12.616Z,11.40
2019-01-26T02:37:40.881Z,11.77
2019-01-26T02:40:10.039Z,11.70
2019-01-26T02:42:38.311Z,11.43
2019-01-26T02:45:06.833Z,12.17
2019-01-26T02:47:35.069Z,11.50
2019-01-26T02:50:03.450Z,11.43
2019-01-26T02:52:31.689Z,11.77
2019-01-26T02:54:59.958Z,11.07
2019-01-26T02:57:28.187Z,11.47
2019-01-26T02:59:56.536Z,11.50
2019-01-26T03:02:24.835Z,10.27
2019-01-26T03:04:53.158Z,10.37
2019-01-26T03:07:21.421Z,10.33
2019-01-26T03:09:49.718Z,10.07
2019-01-26T03:12:33.489Z,9.80
2019-01-26T03:15:01.825Z,9.80
2019-01-26T03:17:31.057Z,9.60
2019-01-26T03:19:59.321Z,9.87
2019-01-26T03:22:27.600Z,10.33
2019-01-26T03:24:55.827Z,10.00
2019-01-26T03:27:24.116Z,9.47
2019-01-26T03:29:52.383Z,10.73
2019-01-26T03:32:20.609Z,9.53
2019-01-26T03:34:48.864Z,9.30
2019-01-26T03:37:17.106Z,10.20
2019-01-26T03:39:45.375Z,9.43
2019-01-26T03:42:13.620Z,8.85
2019-01-26T03:44:41.926Z,8.97
2019-01-26T03:47:13.871Z,9.50
2019-01-26T03:49:40.158Z,9.53
2019-01-26T03:52:08.456Z,9.30
2019-01-26T03:54:36.728Z,8.67
2019-01-26T03:57:05.050Z,8.80
2019-01-26T03:59:33.323Z,9.33
2019-01-26T04:02:01.605Z,9.13
2019-01-26T04:04:29.841Z,9.13
2019-01-26T04:06:58.181Z,8.40
2019-01-26T04:09:26.408Z,9.20
2019-01-26T04:11:54.667Z,8.37
2019-01-26T04:14:22.926Z,8.50
2019-01-26T04:16:51.181Z,8.37
2019-01-26T04:19:19.454Z,7.90
2019-01-26T04:21:47.704Z,8.83
2019-01-26T04:24:15.976Z,8.53
2019-01-26T04:26:44.190Z,9.17
2019-01-26T04:29:12.458Z,8.10
2019-01-26T04:31:40.684Z,7.43
2019-01-26T04:34:08.966Z,8.17
2019-01-26T04:36:37.210Z,7.73
2019-01-26T04:39:06.855Z,8.20
2019-01-26T04:41:35.105Z,7.43
2019-01-26T04:44:03.451Z,7.40
2019-01-26T04:46:31.767Z,7.37
2019-01-26T04:48:59.995Z,7.80
2019-01-26T04:51:28.247Z,7.93
2019-01-26T04:53:56.475Z,7.73
2019-01-26T04:56:24.697Z,7.13
2019-01-26T04:58:52.966Z,7.30
2019-01-26T05:01:21.214Z,8.47
2019-01-26T05:03:49.462Z,7.33
2019-01-26T05:06:18.699Z,7.83
2019-01-26T05:08:46.971Z,7.97
2019-01-26T05:11:15.225Z,6.40
2019-01-26T05:13:43.484Z,7.03
2019-01-26T05:16:11.754Z,7.07
2019-01-26T05:18:39.971Z,6.93
2019-01-26T05:21:08.244Z,7.10
2019-01-26T05:23:37.852Z,7.60
2019-01-26T05:26:06.159Z,7.30
2019-01-26T05:28:34.386Z,7.27
2019-01-26T05:31:02.618Z,7.23
2019-01-26T05:33:30.900Z,7.07
2019-01-26T05:35:59.173Z,6.50
2019-01-26T05:38:27.432Z,6.67
2019-01-26T05:40:55.654Z,7.00
2019-01-26T05:43:23.907Z,7.22
2019-01-26T05:45:53.814Z,6.80
2019-01-26T05:48:22.191Z,6.83
2019-01-26T05:50:50.776Z,6.50
2019-01-26T05:53:19.060Z,6.73
2019-01-26T05:55:47.300Z,6.60
2019-01-26T05:58:16.608Z,5.80
2019-01-26T06:00:44.868Z,6.93
2019-01-26T06:03:13.124Z,6.70
2019-01-26T06:05:41.369Z,6.57
2019-01-26T06:08:09.624Z,6.10
2019-01-26T06:10:37.892Z,6.13
2019-01-26T06:13:06.108Z,6.07
2019-01-26T06:15:34.386Z,6.97
2019-01-26T06:18:03.618Z,5.93
2019-01-26T06:20:31.851Z,6.63
2019-01-26T06:23:00.110Z,6.57
2019-01-26T06:25:30.373Z,5.50
2019-01-26T06:27:58.384Z,5.60
2019-01-26T06:30:26.670Z,5.60
2019-01-26T06:32:54.933Z,6.10
2019-01-26T06:35:24.250Z,5.70
2019-01-26T06:37:52.493Z,6.43
2019-01-26T06:40:20.882Z,5.80
2019-01-26T06:42:49.101Z,5.77
2019-01-26T06:45:20.457Z,6.27
2019-01-26T06:47:48.777Z,5.30
2019-01-26T06:50:20.492Z,5.77
2019-01-26T06:52:48.754Z,5.40
2019-01-26T06:55:16.994Z,5.60
2019-01-26T06:57:45.257Z,5.87
2019-01-26T07:00:16.240Z,5.47
2019-01-26T07:02:44.520Z,5.33
2019-01-26T07:05:31.922Z,6.07
2019-01-26T07:08:00.209Z,5.83
2019-01-26T07:10:28.484Z,5.00
2019-01-26T07:12:56.779Z,5.17
2019-01-26T07:15:25.081Z,5.67
2019-01-26T07:17:53.318Z,5.63
2019-01-26T07:20:21.612Z,5.17
2019-01-26T07:22:49.925Z,5.40
2019-01-26T07:25:18.332Z,4.97
2019-01-26T07:27:46.593Z,5.17
2019-01-26T07:30:17.036Z,5.03
2019-01-26T07:32:45.277Z,4.80
2019-01-26T07:35:13.574Z,5.07
2019-01-26T07:37:41.850Z,4.80
2019-01-26T07:40:12.869Z,4.53
2019-01-26T07:42:41.135Z,5.27
2019-01-26T07:45:10.072Z,4.87
2019-01-26T07:47:38.326Z,5.33
2019-01-26T07:50:07.904Z,5.37
2019-01-26T07:52:36.173Z,5.30
2019-01-26T07:55:05.074Z,5.43
2019-01-26T07:57:33.343Z,5.33
2019-01-26T08:00:01.636Z,5.30
2019-01-26T08:02:30.117Z,4.80
2019-01-26T08:04:58.366Z,4.70
2019-01-26T08:07:27.587Z,5.63
2019-01-26T08:09:55.856Z,5.60
2019-01-26T08:12:24.118Z,4.93
2019-01-26T08:14:52.444Z,5.13
2019-01-26T08:17:20.759Z,5.70
2019-01-26T08:19:49.151Z,4.90
2019-01-26T08:22:17.508Z,5.33
2019-01-26T08:24:45.740Z,5.70
2019-01-26T08:27:16.353Z,5.20
2019-01-26T08:29:44.683Z,5.20
2019-01-26T08:32:12.983Z,5.07
2019-01-26T08:34:41.252Z,4.83
2019-01-26T08:37:09.578Z,5.37
2019-01-26T08:39:37.899Z,5.30
2019-01-26T08:42:06.161Z,5.30
2019-01-26T08:44:34.416Z,5.80
2019-01-26T08:47:02.755Z,5.53
2019-01-26T08:49:31.118Z,5.40
2019-01-26T08:52:00.004Z,5.57
2019-01-26T08:54:28.236Z,5.60
2019-01-26T08:56:56.504Z,5.37
2019-01-26T08:59:24.777Z,5.27
2019-01-26T09:01:59.169Z,5.23
2019-01-26T09:04:30.621Z,5.40
2019-01-26T09:07:01.965Z,5.40
2019-01-26T09:09:30.215Z,5.73
2019-01-26T09:11:58.523Z,5.53
2019-01-26T09:14:26.835Z,5.33
2019-01-26T09:16:56.581Z,5.00
2019-01-26T09:19:24.920Z,5.00
2019-01-26T09:21:53.166Z,6.17
2019-01-26T09:24:21.478Z,6.03
2019-01-26T09:26:49.739Z,5.77
2019-01-26T09:29:18.033Z,5.93
2019-01-26T09:31:46.255Z,5.60
2019-01-26T09:34:15.514Z,5.87
2019-01-26T09:36:43.798Z,5.57
2019-01-26T09:39:15.476Z,5.97
2019-01-26T09:41:43.816Z,6.00
2019-01-26T09:44:12.151Z,5.07
2019-01-26T09:46:40.443Z,5.60
2019-01-26T09:49:09.024Z,5.60
2019-01-26T09:51:37.308Z,5.40
2019-01-26T09:54:06.137Z,5.58
2019-01-26T09:56:34.509Z,5.55
2019-01-26T09:59:02.912Z,5.75
2019-01-26T10:01:31.137Z,5.83
2019-01-26T10:03:59.398Z,5.40
2019-01-26T10:06:27.693Z,5.63
2019-01-26T10:08:55.970Z,5.37
2019-01-26T10:11:24.223Z,5.40
2019-01-26T10:13:52.517Z,5.30
2019-01-26T10:16:20.851Z,5.58
2019-01-26T10:18:53.569Z,5.87
2019-01-26T10:21:20.127Z,5.63
2019-01-26T10:23:48.383Z,5.60
2019-01-26T10:26:18.272Z,5.83
2019-01-26T10:28:46.502Z,5.83
2019-01-26T10:31:14.855Z,5.13
2019-01-26T10:33:43.098Z,5.33
2019-01-26T10:36:25.059Z,5.78
2019-01-26T10:39:02.108Z,4.90
2019-01-26T10:41:49.477Z,4.90
2019-01-26T10:44:23.957Z,4.75
2019-01-26T10:46:52.214Z,4.17
2019-01-26T10:49:20.537Z,4.50
2019-01-26T10:51:48.819Z,3.50
2019-01-26T10:54:17.182Z,4.10
2019-01-26T10:56:45.493Z,3.40
2019-01-26T10:59:13.777Z,3.30
2019-01-26T11:01:42.035Z,3.73
2019-01-26T11:04:10.367Z,3.20
2019-01-26T11:06:38.642Z,3.47
2019-01-26T11:09:08.238Z,3.70
2019-01-26T11:11:37.614Z,3.22
2019-01-26T11:14:05.982Z,3.87
2019-01-26T11:16:34.249Z,3.10
2019-01-26T11:19:07.823Z,3.17
2019-01-26T11:21:32.628Z,3.23
2019-01-26T11:24:01.040Z,3.60
2019-01-26T11:26:29.324Z,3.13
2019-01-26T11:28:57.590Z,3.60
2019-01-26T11:31:26.049Z,3.60
2019-01-26T11:33:54.485Z,3.60
2019-01-26T11:36:22.884Z,3.47
2019-01-26T11:38:51.194Z,2.95
2019-01-26T11:41:19.615Z,2.90
2019-01-26T11:43:48.091Z,3.33
2019-01-26T11:46:23.343Z,3.43
2019-01-26T11:48:54.643Z,3.10
2019-01-26T11:51:31.069Z,2.90
2019-01-26T11:53:59.332Z,3.33
2019-01-26T11:56:32.947Z,2.77
2019-01-26T11:59:01.316Z,3.00
2019-01-26T12:01:39.218Z,2.70
2019-01-26T12:04:35.958Z,3.12
2019-01-26T12:07:29.278Z,2.73
2019-01-26T12:09:57.653Z,3.08
2019-01-26T12:12:25.925Z,3.10
2019-01-26T12:14:54.192Z,2.73
2019-01-26T12:17:22.441Z,3.00
2019-01-26T12:19:50.712Z,2.73
2019-01-26T12:22:18.978Z,2.93
2019-01-26T12:24:47.415Z,2.85
2019-01-26T12:27:15.791Z,2.60
2019-01-26T12:29:44.090Z,3.00
2019-01-26T12:32:12.447Z,2.90
2019-01-26T12:34:40.713Z,3.17
2019-01-26T12:37:09.100Z,2.90
2019-01-26T12:39:37.353Z,2.98
2019-01-26T12:42:05.789Z,2.90
2019-01-26T12:44:34.068Z,2.70
2019-01-26T12:47:02.320Z,3.27
2019-01-26T12:49:30.631Z,3.43
2019-01-26T12:51:58.882Z,3.67
2019-01-26T12:54:27.176Z,3.00
2019-01-26T12:56:55.421Z,3.08
2019-01-26T12:59:23.738Z,3.12
2019-01-26T13:01:52.081Z,3.10
2019-01-26T13:04:20.359Z,3.53
2019-01-26T13:06:48.634Z,3.07
2019-01-26T13:09:16.888Z,3.10
2019-01-26T13:11:45.373Z,3.20
2019-01-26T13:14:13.706Z,3.10
2019-01-26T13:16:41.955Z,2.95
2019-01-26T13:19:10.252Z,4.50
2019-01-26T13:21:38.543Z,3.63
2019-01-26T13:24:06.841Z,5.03
2019-01-26T13:26:35.129Z,5.12
2019-01-26T13:29:03.695Z,5.22
2019-01-26T13:31:33.689Z,5.17
2019-01-26T13:34:02.093Z,5.37
2019-01-26T13:36:30.383Z,5.90
2019-01-26T13:38:58.690Z,5.47
2019-01-26T13:41:26.971Z,5.72
2019-01-26T13:43:55.279Z,6.43
2019-01-26T13:46:23.583Z,5.80
2019-01-26T13:48:51.839Z,6.17
2019-01-26T13:51:20.939Z,6.37
2019-01-26T13:53:49.263Z,6.33
2019-01-26T13:56:17.521Z,6.28
2019-01-26T13:58:46.463Z,6.23
2019-01-26T14:01:14.778Z,6.27
2019-01-26T14:03:43.052Z,6.37
2019-01-26T14:06:11.664Z,6.90
2019-01-26T14:08:40.026Z,6.60
2019-01-26T14:11:08.447Z,6.73
2019-01-26T14:13:37.355Z,6.62
2019-01-26T14:16:05.684Z,6.33
2019-01-26T14:18:34.453Z,6.60
2019-01-26T14:21:02.952Z,7.30
2019-01-26T14:23:31.263Z,7.27
2019-01-26T14:25:59.638Z,6.50
2019-01-26T14:28:27.923Z,7.00
2019-01-26T14:30:57.659Z,7.20
2019-01-26T14:33:25.908Z,6.50
2019-01-26T14:35:54.208Z,6.63
2019-01-26T14:38:22.507Z,5.90
2019-01-26T14:40:50.863Z,6.23
2019-01-26T14:43:19.180Z,6.77
2019-01-26T14:45:47.478Z,6.27
2019-01-26T14:48:15.742Z,6.58
2019-01-26T14:50:44.097Z,5.92
2019-01-26T14:53:12.382Z,5.60
2019-01-26T14:55:40.665Z,6.27
2019-01-26T14:58:09.902Z,6.20
2019-01-26T15:00:38.222Z,5.93
2019-01-26T15:03:06.600Z,6.40
2019-01-26T15:05:34.893Z,6.80
2019-01-26T15:08:03.388Z,5.97
2019-01-26T15:10:31.682Z,6.20
2019-01-26T15:13:00.087Z,6.93
2019-01-26T15:15:28.607Z,6.55
2019-01-26T15:17:57.000Z,6.50
2019-01-26T15:20:26.412Z,6.33
2019-01-26T15:22:54.719Z,6.00
2019-01-26T15:25:23.197Z,6.25
2019-01-26T15:27:51.490Z,6.10
2019-01-26T15:30:21.176Z,5.72
2019-01-26T15:32:49.452Z,6.05
2019-01-26T15:35:18.901Z,5.40
2019-01-26T15:37:47.177Z,5.53
2019-01-26T15:40:15.447Z,5.33
2019-01-26T15:42:43.710Z,5.43
2019-01-26T15:45:16.395Z,5.07
2019-01-26T15:47:44.691Z,4.92
2019-01-26T15:50:13.383Z,5.08
2019-01-26T15:52:41.770Z,4.80
2019-01-26T15:55:11.354Z,5.07
2019-01-26T15:57:39.625Z,4.58
2019-01-26T16:00:10.063Z,4.70
2019-01-26T16:02:38.607Z,4.77
2019-01-26T16:05:07.082Z,4.43
2019-01-26T16:07:35.359Z,3.95
2019-01-26T16:10:03.781Z,4.35
2019-01-26T16:12:32.079Z,4.17
2019-01-26T16:15:00.598Z,4.00
2019-01-26T16:17:28.884Z,4.90
2019-01-26T16:19:57.245Z,4.08
2019-01-26T16:22:25.481Z,3.85
2019-01-26T16:24:53.740Z,4.17
2019-01-26T16:27:21.981Z,4.08
2019-01-26T16:29:50.291Z,4.20
2019-01-26T16:32:18.551Z,4.30
2019-01-26T16:34:46.978Z,4.17
2019-01-26T16:37:15.260Z,3.33
2019-01-26T16:39:43.657Z,3.80
2019-01-26T16:42:11.942Z,3.77
2019-01-26T16:44:40.800Z,4.20
2019-01-26T16:47:09.185Z,3.62
2019-01-26T16:49:37.522Z,3.77
2019-01-26T16:52:05.798Z,3.47
2019-01-26T16:54:34.249Z,3.62
2019-01-26T16:57:02.864Z,2.90
2019-01-26T16:59:31.208Z,3.47
2019-01-26T17:01:59.804Z,2.92
2019-01-26T17:04:28.110Z,3.30
2019-01-26T17:06:57.633Z,3.00
2019-01-26T17:09:25.937Z,2.87
2019-01-26T17:11:54.209Z,3.45
2019-01-26T17:14:22.600Z,3.30
2019-01-26T17:16:50.859Z,3.43
2019-01-26T17:19:20.097Z,3.15
2019-01-26T17:21:48.419Z,3.55
2019-01-26T17:24:16.715Z,3.00
2019-01-26T17:26:44.997Z,3.35
2019-01-26T17:29:13.297Z,3.40
2019-01-26T17:31:41.565Z,3.60
2019-01-26T17:34:09.843Z,3.40
2019-01-26T17:36:38.195Z,3.83
2019-01-26T17:39:07.980Z,3.35
2019-01-26T17:41:36.201Z,3.58
2019-01-26T17:44:04.485Z,3.57
2019-01-26T17:46:32.877Z,3.80
2019-01-26T17:49:01.239Z,4.28
2019-01-26T17:51:29.515Z,3.72
2019-01-26T17:53:57.902Z,4.05
2019-01-26T17:56:26.884Z,4.30
2019-01-26T17:58:55.146Z,4.12
2019-01-26T18:01:23.464Z,4.58
2019-01-26T18:03:51.697Z,4.30
2019-01-26T18:06:19.916Z,4.08
2019-01-26T18:08:48.189Z,4.10
2019-01-26T18:11:16.429Z,4.27
2019-01-26T18:13:44.691Z,4.92
2019-01-26T18:16:12.939Z,4.30
2019-01-26T18:18:41.185Z,4.33
2019-01-26T18:21:09.435Z,4.40
2019-01-26T18:23:37.786Z,4.10
2019-01-26T18:26:07.295Z,3.77
2019-01-26T18:28:35.618Z,4.25
2019-01-26T18:31:03.859Z,3.77
2019-01-26T18:33:32.115Z,3.40
2019-01-26T18:36:00.390Z,3.40
2019-01-26T18:38:28.679Z,3.70
2019-01-26T18:40:56.929Z,3.30
2019-01-26T18:43:25.189Z,3.90
2019-01-26T18:45:53.447Z,3.90
2019-01-26T18:48:22.661Z,3.85
2019-01-26T18:50:56.103Z,4.30
2019-01-26T18:53:21.030Z,4.13
2019-01-26T18:55:49.349Z,4.78
2019-01-26T18:58:17.696Z,4.37
2019-01-26T19:00:47.336Z,4.10
2019-01-26T19:03:46.810Z,4.17
2019-01-26T19:06:15.062Z,4.62
2019-01-26T19:08:43.326Z,4.75
2019-01-26T19:11:11.566Z,5.05
2019-01-26T19:13:39.857Z,4.83
2019-01-26T19:16:08.287Z,4.97
2019-01-26T19:18:36.635Z,4.80
2019-01-26T19:21:04.953Z,5.47
2019-01-26T19:23:33.246Z,5.40
2019-01-26T19:26:01.487Z,5.25
2019-01-26T19:28:29.750Z,5.43
2019-01-26T19:30:57.998Z,5.78
2019-01-26T19:33:26.277Z,6.05
2019-01-26T19:35:54.767Z,5.58
2019-01-26T19:38:23.092Z,6.42
2019-01-26T19:40:51.365Z,6.37
2019-01-26T19:43:19.695Z,6.80
2019-01-26T19:45:48.006Z,7.30
2019-01-26T19:48:16.265Z,6.60
2019-01-26T19:50:44.591Z,6.43
2019-01-26T19:53:12.968Z,6.85
2019-01-26T19:55:41.716Z,6.57
2019-01-26T19:58:10.036Z,6.50
2019-01-26T20:00:38.310Z,6.90
2019-01-26T20:03:07.672Z,6.20
2019-01-26T20:05:36.551Z,6.80
2019-01-26T20:08:04.906Z,6.87
2019-01-26T20:10:33.259Z,6.67
2019-01-26T20:13:01.742Z,6.45
2019-01-26T20:15:32.301Z,6.03
2019-01-26T20:18:00.656Z,6.23
2019-01-26T20:20:30.224Z,5.42
2019-01-26T20:22:58.536Z,6.30
2019-01-26T20:25:26.935Z,5.37
2019-01-26T20:27:55.421Z,6.78
2019-01-26T20:30:24.925Z,6.00
2019-01-26T20:32:53.250Z,6.90
2019-01-26T20:35:21.600Z,6.90
2019-01-26T20:37:50.260Z,6.03
2019-01-26T20:40:18.647Z,7.03
2019-01-26T20:42:47.011Z,7.07
2019-01-26T20:45:16.556Z,7.40
2019-01-26T20:47:44.885Z,7.33
2019-01-26T20:50:13.279Z,7.57
2019-01-26T20:52:41.686Z,7.10
2019-01-26T20:55:10.101Z,8.30
2019-01-26T20:57:38.690Z,8.23
2019-01-26T21:00:09.332Z,7.67
2019-01-26T21:02:37.629Z,8.03
2019-01-26T21:05:06.310Z,7.60
2019-01-26T21:07:34.679Z,8.77
2019-01-26T21:10:02.984Z,8.27
2019-01-26T21:12:31.375Z,7.57
2019-01-26T21:15:04.575Z,8.33
2019-01-26T21:17:29.791Z,8.28
2019-01-26T21:19:58.095Z,8.70
2019-01-26T21:22:26.412Z,8.50
2019-01-26T21:24:54.660Z,8.47
2019-01-26T21:27:22.927Z,8.73
2019-01-26T21:29:52.334Z,8.73
2019-01-26T21:32:20.748Z,8.83
2019-01-26T21:34:49.105Z,9.83
2019-01-26T21:37:17.459Z,9.10
2019-01-26T21:39:45.827Z,9.87
2019-01-26T21:42:14.178Z,10.10
2019-01-26T21:44:42.450Z,10.27
2019-01-26T21:47:10.724Z,9.63
2019-01-26T21:49:39.014Z,9.80
2019-01-26T21:52:07.416Z,10.20
2019-01-26T21:54:35.700Z,10.90
2019-01-26T21:57:03.946Z,10.37
2019-01-26T21:59:32.231Z,10.53
2019-01-26T22:02:00.597Z,10.50
2019-01-26T22:04:28.997Z,11.00
2019-01-26T22:06:57.293Z,10.07
2019-01-26T22:09:25.609Z,10.63
2019-01-26T22:11:53.843Z,11.23
2019-01-26T22:14:22.348Z,11.10
2019-01-26T22:16:50.700Z,10.65
2019-01-26T22:19:21.834Z,10.93
2019-01-26T22:21:49.010Z,11.57
2019-01-26T22:24:17.420Z,11.93
2019-01-26T22:26:45.717Z,10.57
2019-01-26T22:29:14.036Z,10.70
2019-01-26T22:31:42.310Z,11.13
2019-01-26T22:34:10.655Z,11.15
2019-01-26T22:36:38.994Z,10.40
2019-01-26T22:39:08.029Z,10.17
2019-01-26T22:41:36.318Z,11.53
2019-01-26T22:44:04.781Z,11.00
2019-01-26T22:46:33.128Z,10.83
2019-01-26T22:49:01.442Z,11.23
2019-01-26T22:51:29.809Z,10.98
2019-01-26T22:53:58.194Z,11.00
2019-01-26T22:56:26.550Z,10.50
2019-01-26T22:58:55.129Z,10.17
2019-01-26T23:01:28.062Z,10.23
2019-01-26T23:04:15.658Z,9.77
2019-01-26T23:06:49.765Z,10.13
2019-01-26T23:09:26.446Z,9.50
2019-01-26T23:12:03.884Z,10.13
2019-01-26T23:14:45.341Z,10.23
2019-01-26T23:17:22.398Z,10.13
2019-01-26T23:20:08.692Z,10.80
2019-01-26T23:22:54.808Z,10.60
2019-01-26T23:25:42.640Z,11.05
2019-01-26T23:28:28.856Z,10.95
2019-01-26T23:31:13.599Z,11.00
2019-01-26T23:33:41.913Z,11.07
2019-01-26T23:36:10.165Z,10.07
2019-01-26T23:38:38.459Z,11.53
2019-01-26T23:41:06.929Z,10.63
2019-01-26T23:43:36.230Z,10.23
2019-01-26T23:46:04.493Z,10.87
2019-01-26T23:48:32.825Z,10.80
2019-01-26T23:51:01.219Z,10.97
2019-01-26T23:53:29.621Z,11.10
2019-01-26T23:55:57.940Z,11.27
2019-01-26T23:58:26.264Z,12.80
